Terminal Aerodrome Forecast
Issued by NWS Quad Cities IA IL

Home | Current Version | Previous Version | Text Only | Print | Product List | Glossary On
Versions: 1 2 3 4 5 6 7 8 9 10 11 12 13 14 15 16 17 18 19 20
000
FTUS43 KDVN 221100
TAFMLI
TAF
KMLI 221120Z 2212/2312 33009KT P6SM SKC
     FM221500 33013KT P6SM SKC
     FM222300 34008KT P6SM SCT250
     FM230700 06004KT P6SM BKN250=

USA.gov is the U.S. government's official web portal to all federal, state and local government web resources and services.